createdAt,value
2023-01-13T00:00:10.640Z,12.21
2023-01-13T00:05:15.154Z,12.16
2023-01-13T00:10:17.144Z,11.78
2023-01-13T00:15:18.917Z,11.86
2023-01-13T00:20:21.081Z,12.08
2023-01-13T00:25:22.836Z,12.24
2023-01-13T00:30:24.650Z,12.30
2023-01-13T00:35:27.121Z,12.29
2023-01-13T00:40:28.928Z,12.29
2023-01-13T00:45:30.693Z,12.06
2023-01-13T00:50:33.118Z,11.33
2023-01-13T00:55:34.929Z,11.94
2023-01-13T01:00:37.016Z,12.21
2023-01-13T01:05:39.914Z,12.06
2023-01-13T01:10:41.687Z,11.94
2023-01-13T01:15:44.589Z,11.88
2023-01-13T01:20:46.642Z,12.00
2023-01-13T01:25:48.493Z,11.90
2023-01-13T01:30:51.393Z,12.16
2023-01-13T01:35:54.135Z,12.02
2023-01-13T01:40:56.492Z,11.07
2023-01-13T01:45:58.309Z,11.78
2023-01-13T01:51:00.488Z,11.99
2023-01-13T01:56:03.520Z,12.20
2023-01-13T02:01:05.451Z,11.13
2023-01-13T02:06:08.357Z,11.38
2023-01-13T02:11:47.407Z,11.91
2023-01-13T02:17:07.320Z,11.86
2023-01-13T02:22:26.374Z,10.80
2023-01-13T02:27:46.653Z,11.80
2023-01-13T02:33:00.032Z,11.00
2023-01-13T02:38:02.832Z,11.29
2023-01-13T02:43:33.731Z,12.15
2023-01-13T02:48:38.280Z,11.70
2023-01-13T02:53:53.846Z,10.95
2023-01-13T02:58:57.914Z,11.87
2023-01-13T03:03:59.631Z,11.99
2023-01-13T03:09:10.633Z,12.05
2023-01-13T03:14:27.566Z,10.87
2023-01-13T03:19:43.091Z,11.18
2023-01-13T03:24:53.451Z,11.62
2023-01-13T03:30:08.121Z,11.82
2023-01-13T03:35:19.013Z,11.99
2023-01-13T03:40:26.168Z,11.34
2023-01-13T03:45:31.174Z,10.81
2023-01-13T03:50:41.013Z,11.23
2023-01-13T03:55:50.245Z,11.59
2023-01-13T04:00:55.690Z,11.68
2023-01-13T04:06:08.933Z,11.94
2023-01-13T04:11:19.738Z,11.05
2023-01-13T04:16:21.572Z,11.14
2023-01-13T04:21:23.284Z,11.65
2023-01-13T04:26:24.978Z,11.88
2023-01-13T04:31:26.925Z,11.82
2023-01-13T04:36:28.756Z,11.15
2023-01-13T04:41:53.319Z,10.88
2023-01-13T04:46:55.189Z,11.41
2023-01-13T04:51:57.381Z,11.79
2023-01-13T04:56:59.099Z,10.93
2023-01-13T05:02:00.840Z,10.92
2023-01-13T05:07:02.616Z,11.58
2023-01-13T05:12:23.194Z,11.65
2023-01-13T05:17:26.103Z,10.57
2023-01-13T05:22:51.036Z,11.02
2023-01-13T05:27:55.735Z,11.15
2023-01-13T05:32:57.695Z,11.32
2023-01-13T05:37:59.375Z,11.61
2023-01-13T05:43:21.973Z,11.60
2023-01-13T05:48:26.861Z,11.55
2023-01-13T05:53:29.287Z,10.52
2023-01-13T05:58:31.388Z,11.24
2023-01-13T06:03:33.496Z,11.55
2023-01-13T06:08:35.568Z,11.73
2023-01-13T06:13:37.922Z,10.88
2023-01-13T06:18:39.707Z,10.84
2023-01-13T06:23:41.380Z,11.14
2023-01-13T06:28:43.148Z,11.42
2023-01-13T06:33:52.469Z,11.45
2023-01-13T06:38:57.730Z,11.25
2023-01-13T06:43:59.492Z,11.16
2023-01-13T06:49:01.294Z,11.16
2023-01-13T06:54:03.368Z,11.18
2023-01-13T06:59:05.055Z,11.21
2023-01-13T07:04:06.751Z,11.33
2023-01-13T07:09:08.428Z,11.41
2023-01-13T07:14:29.117Z,11.51
2023-01-13T07:19:30.844Z,11.38
2023-01-13T07:24:32.535Z,10.62
2023-01-13T07:29:34.213Z,11.21
2023-01-13T07:34:36.000Z,11.40
2023-01-13T07:39:37.725Z,11.31
2023-01-13T07:44:39.444Z,11.18
2023-01-13T07:49:41.135Z,11.12
2023-01-13T07:54:42.835Z,11.11
2023-01-13T07:59:44.500Z,10.92
2023-01-13T08:04:46.275Z,10.95
2023-01-13T08:09:48.969Z,10.86
2023-01-13T08:14:51.761Z,10.91
2023-01-13T08:19:53.528Z,11.01
2023-01-13T08:24:55.230Z,11.18
2023-01-13T08:29:56.926Z,11.26
2023-01-13T08:34:58.621Z,11.15
2023-01-13T08:40:00.302Z,11.31
2023-01-13T18:16:07.195Z,10.77
2023-01-13T18:21:37.949Z,10.85
2023-01-13T18:26:58.443Z,10.63
2023-01-13T18:32:00.248Z,10.37
2023-01-13T18:37:02.253Z,10.25
2023-01-13T18:42:24.104Z,10.15
2023-01-13T18:47:28.857Z,10.06
2023-01-13T18:52:30.592Z,10.11
2023-01-13T18:57:32.324Z,10.12
2023-01-13T19:02:34.447Z,10.08
2023-01-13T19:07:36.761Z,9.89
2023-01-13T19:12:38.434Z,9.75
2023-01-13T19:17:40.361Z,9.70
2023-01-13T19:22:42.289Z,9.70
2023-01-13T19:27:44.300Z,9.61
2023-01-13T19:32:46.052Z,9.55
2023-01-13T19:37:47.797Z,9.57
2023-01-13T19:43:08.331Z,9.55
2023-01-13T19:48:10.087Z,9.42
2023-01-13T19:53:17.895Z,9.46
2023-01-13T19:58:21.232Z,9.50
2023-01-13T20:03:25.947Z,9.31
2023-01-13T20:08:28.187Z,9.65
2023-01-13T20:13:32.428Z,10.11
2023-01-13T20:18:36.623Z,10.21
2023-01-13T20:23:38.387Z,10.28
2023-01-13T20:28:40.194Z,10.31
2023-01-13T20:33:43.154Z,10.40
2023-01-13T20:38:44.816Z,11.09
2023-01-13T20:43:48.893Z,11.31
2023-01-13T20:48:50.770Z,11.22
2023-01-13T20:53:52.569Z,11.60
2023-01-13T20:58:54.463Z,11.75
2023-01-13T21:03:57.226Z,11.77
2023-01-13T21:08:59.119Z,11.97
2023-01-13T21:14:19.608Z,11.71
2023-01-13T21:19:21.311Z,11.65
2023-01-13T21:24:24.249Z,11.88
2023-01-13T21:29:25.988Z,11.95
2023-01-13T21:34:27.782Z,12.02
2023-01-13T21:39:29.560Z,11.97
2023-01-13T21:44:50.175Z,12.14
2023-01-13T21:49:51.963Z,11.84
2023-01-13T21:55:12.534Z,11.64
2023-01-13T22:00:15.711Z,11.43
2023-01-13T22:05:20.037Z,11.32
2023-01-13T22:10:24.379Z,11.36
2023-01-13T22:15:28.352Z,11.06
2023-01-13T22:20:30.051Z,11.22
2023-01-13T22:25:31.744Z,11.35
2023-01-13T22:30:33.477Z,11.40
2023-01-13T22:35:35.214Z,11.86
2023-01-13T22:40:36.885Z,12.10
2023-01-13T22:45:39.100Z,12.10
2023-01-13T22:50:40.819Z,12.08
2023-01-13T22:55:44.363Z,11.95
2023-01-13T23:00:46.904Z,11.88
2023-01-13T23:05:49.597Z,11.32
2023-01-13T23:10:51.256Z,11.27
2023-01-13T23:15:53.038Z,11.60
2023-01-13T23:20:54.810Z,11.77
2023-01-13T23:26:18.930Z,11.53
2023-01-13T23:36:01.008Z,11.01
2023-01-13T23:41:07.354Z,10.85
2023-01-13T23:46:14.154Z,10.75
2023-01-13T23:51:16.160Z,10.98
2023-01-13T23:56:21.285Z,11.15
